createdAt,value
2018-10-07T00:01:31.457Z,81.41
2018-10-07T00:04:37.002Z,80.42
2018-10-07T00:07:42.397Z,81.23
2018-10-07T00:10:47.795Z,81.58
2018-10-07T00:13:53.231Z,81.74
2018-10-07T00:16:58.627Z,81.61
2018-10-07T00:20:04.418Z,82.15
2018-10-07T00:23:09.930Z,81.88
2018-10-07T00:26:15.344Z,82.50
2018-10-07T00:29:20.852Z,83.19
2018-10-07T00:32:26.299Z,83.23
2018-10-07T00:35:31.782Z,82.76
2018-10-07T00:38:37.166Z,82.87
2018-10-07T00:41:42.583Z,82.87
2018-10-07T00:44:48.378Z,83.41
2018-10-07T00:47:54.203Z,83.49
2018-10-07T00:50:59.971Z,84.34
2018-10-07T00:54:05.573Z,84.08
2018-10-07T00:57:11.003Z,83.98
2018-10-07T01:00:16.462Z,84.32
2018-10-07T01:03:21.858Z,84.16
2018-10-07T01:06:27.263Z,84.02
2018-10-07T01:09:32.662Z,84.59
2018-10-07T01:12:38.066Z,84.01
2018-10-07T01:15:43.466Z,84.44
2018-10-07T01:18:48.858Z,84.35
2018-10-07T01:21:54.269Z,84.91
2018-10-07T01:24:59.770Z,85.44
2018-10-07T01:28:05.153Z,82.98
2018-10-07T01:31:10.559Z,84.09
2018-10-07T01:34:16.003Z,83.88
2018-10-07T01:37:21.414Z,81.90
2018-10-07T01:40:26.842Z,81.71
2018-10-07T01:43:34.451Z,81.94
2018-10-07T01:46:39.865Z,82.51
2018-10-07T01:49:45.241Z,83.83
2018-10-07T01:52:52.763Z,82.28
2018-10-07T01:55:58.149Z,80.84
2018-10-07T01:59:03.522Z,81.06
2018-10-07T02:02:09.030Z,80.05
2018-10-07T02:05:14.624Z,80.69
2018-10-07T02:08:20.146Z,81.51
2018-10-07T02:11:25.538Z,81.51
2018-10-07T02:14:31.096Z,81.87
2018-10-07T02:17:36.518Z,83.31
2018-10-07T02:20:41.917Z,82.15
2018-10-07T02:23:47.578Z,82.81
2018-10-07T02:26:53.539Z,81.62
2018-10-07T02:29:58.906Z,81.63
2018-10-07T02:33:04.427Z,82.02
2018-10-07T02:36:09.855Z,81.14
2018-10-07T02:39:15.314Z,79.25
2018-10-07T02:42:20.771Z,79.80
2018-10-07T02:45:26.282Z,80.25
2018-10-07T02:48:31.691Z,80.78
2018-10-07T02:51:37.967Z,81.89
2018-10-07T02:54:43.561Z,81.35
2018-10-07T02:57:50.202Z,80.66
2018-10-07T03:00:55.979Z,80.88
2018-10-07T03:04:01.503Z,81.30
2018-10-07T03:07:07.747Z,81.26
2018-10-07T03:10:13.196Z,82.88
2018-10-07T03:13:18.679Z,82.02
2018-10-07T03:16:24.099Z,81.20
2018-10-07T03:19:29.802Z,82.26
2018-10-07T03:22:35.714Z,82.33
2018-10-07T03:25:41.110Z,82.82
2018-10-07T03:28:46.551Z,83.74
2018-10-07T03:31:51.983Z,83.45
2018-10-07T03:34:57.421Z,82.65
2018-10-07T03:38:02.814Z,83.01
2018-10-07T03:41:19.598Z,84.03
2018-10-07T03:44:25.027Z,83.47
2018-10-07T03:47:30.702Z,83.07
2018-10-07T03:50:36.570Z,83.36
2018-10-07T03:53:42.034Z,83.23
2018-10-07T03:56:47.557Z,82.61
2018-10-07T03:59:53.055Z,81.56
2018-10-07T04:02:58.583Z,81.36
2018-10-07T04:06:03.987Z,80.47
2018-10-07T04:09:11.502Z,81.18
2018-10-07T04:12:17.126Z,81.28
2018-10-07T04:15:22.594Z,81.60
2018-10-07T04:18:28.025Z,81.73
2018-10-07T04:21:33.480Z,81.36
2018-10-07T04:24:38.951Z,81.05
2018-10-07T04:27:44.355Z,81.76
2018-10-07T04:30:49.753Z,81.24
2018-10-07T04:33:55.301Z,81.29
2018-10-07T04:37:00.722Z,81.95
2018-10-07T04:40:06.390Z,81.67
2018-10-07T04:43:11.845Z,82.10
2018-10-07T04:46:17.297Z,81.05
2018-10-07T04:49:22.881Z,81.82
2018-10-07T04:52:28.291Z,81.62
2018-10-07T04:55:33.730Z,80.54
2018-10-07T04:58:39.146Z,80.78
2018-10-07T05:01:44.535Z,80.86
2018-10-07T05:04:50.006Z,80.46
2018-10-07T05:07:55.630Z,79.81
2018-10-07T05:11:02.530Z,79.55
2018-10-07T05:14:09.359Z,78.54
2018-10-07T05:17:17.186Z,79.14
2018-10-07T05:20:22.619Z,79.54
2018-10-07T05:23:28.207Z,79.35
2018-10-07T05:26:34.471Z,80.32
2018-10-07T05:29:39.921Z,81.11
2018-10-07T05:32:45.350Z,80.36
2018-10-07T05:35:50.754Z,79.79
2018-10-07T05:38:56.229Z,79.82
2018-10-07T05:42:01.641Z,80.09
2018-10-07T05:45:07.439Z,80.13
2018-10-07T05:48:12.883Z,80.65
2018-10-07T05:51:18.266Z,80.93
2018-10-07T05:54:23.710Z,80.76
2018-10-07T05:57:29.247Z,80.65
2018-10-07T06:00:36.619Z,81.43
2018-10-07T06:04:56.190Z,81.02
2018-10-07T06:08:02.174Z,80.53
2018-10-07T06:11:07.599Z,80.08
2018-10-07T06:14:34.781Z,81.06
2018-10-07T06:17:40.522Z,82.00
2018-10-07T06:20:46.606Z,80.07
2018-10-07T06:23:52.442Z,79.89
2018-10-07T06:26:57.905Z,80.34
2018-10-07T06:30:03.375Z,80.55
2018-10-07T06:33:08.863Z,80.53
2018-10-07T06:36:14.619Z,79.32
2018-10-07T06:39:20.058Z,80.25
2018-10-07T06:42:28.045Z,80.30
2018-10-07T06:45:33.878Z,78.38
2018-10-07T06:48:39.494Z,78.54
2018-10-07T06:51:44.914Z,79.29
2018-10-07T06:54:51.078Z,80.00
2018-10-07T06:57:56.481Z,79.13
2018-10-07T07:01:01.917Z,78.59
2018-10-07T07:04:07.470Z,78.75
2018-10-07T07:07:12.859Z,78.15
2018-10-07T07:10:19.347Z,77.93
2018-10-07T07:13:24.928Z,77.68
2018-10-07T07:16:31.125Z,77.66
2018-10-07T07:19:36.591Z,78.79
2018-10-07T07:22:42.257Z,77.68
2018-10-07T07:25:47.681Z,77.43
2018-10-07T07:28:53.643Z,77.08
2018-10-07T07:31:59.054Z,76.12
2018-10-07T07:35:04.595Z,74.39
2018-10-07T07:38:09.978Z,74.56
2018-10-07T07:41:15.402Z,73.41
2018-10-07T07:44:20.986Z,73.45
2018-10-07T07:47:26.387Z,73.45
2018-10-07T07:50:31.840Z,73.81
2018-10-07T07:53:37.345Z,74.07
2018-10-07T07:56:42.766Z,74.66
2018-10-07T07:59:48.166Z,74.36
2018-10-07T08:02:53.595Z,73.78
2018-10-07T08:05:59.042Z,72.90
2018-10-07T08:09:05.881Z,72.82
2018-10-07T08:12:11.270Z,71.58
2018-10-07T08:15:16.770Z,69.52
2018-10-07T08:18:22.171Z,70.56
2018-10-07T08:21:27.595Z,71.71
2018-10-07T08:24:33.131Z,70.36
2018-10-07T08:27:38.726Z,66.81
2018-10-07T08:30:46.331Z,64.39
2018-10-07T08:33:51.903Z,63.99
2018-10-07T08:37:00.851Z,63.00
2018-10-07T08:40:06.454Z,61.46
2018-10-07T08:43:11.911Z,61.97
2018-10-07T08:46:18.980Z,60.45
2018-10-07T08:49:28.788Z,61.98
2018-10-07T08:52:38.625Z,62.70
2018-10-07T08:55:48.405Z,62.91
2018-10-07T08:59:07.470Z,63.19
2018-10-07T09:02:13.159Z,63.54
2018-10-07T09:05:18.856Z,62.84
2018-10-07T09:08:24.255Z,62.79
2018-10-07T09:11:29.662Z,61.90
2018-10-07T09:14:35.433Z,61.04
2018-10-07T09:17:41.041Z,61.77
2018-10-07T09:20:46.537Z,61.12
2018-10-07T09:23:52.126Z,59.83
2018-10-07T09:26:57.608Z,60.70
2018-10-07T09:30:04.164Z,59.61
2018-10-07T09:33:09.626Z,59.81
2018-10-07T09:36:15.039Z,58.40
2018-10-07T09:39:20.499Z,59.39
2018-10-07T09:42:26.099Z,58.37
2018-10-07T09:45:32.182Z,56.79
2018-10-07T09:48:38.106Z,56.70
2018-10-07T09:51:43.529Z,56.23
2018-10-07T09:54:48.997Z,56.16
2018-10-07T09:57:54.429Z,54.46
2018-10-07T10:01:00.058Z,54.81
2018-10-07T10:04:05.918Z,54.83
2018-10-07T10:07:11.598Z,55.46
2018-10-07T10:10:17.194Z,54.36
2018-10-07T10:13:22.702Z,54.43
2018-10-07T10:16:39.371Z,53.17
2018-10-07T10:19:57.046Z,53.02
2018-10-07T10:23:18.633Z,52.86
2018-10-07T10:26:42.243Z,53.14
2018-10-07T10:29:53.113Z,51.04
2018-10-07T10:33:11.487Z,49.50
2018-10-07T10:37:07.788Z,49.74
2018-10-07T10:40:29.418Z,49.07
2018-10-07T10:43:57.725Z,47.13
2018-10-07T10:47:11.298Z,46.51
2018-10-07T10:50:29.950Z,47.89
2018-10-07T10:53:44.459Z,47.00
2018-10-07T10:57:07.774Z,45.31
2018-10-07T11:00:15.969Z,44.61
2018-10-07T11:03:48.046Z,43.93
2018-10-07T11:07:16.594Z,44.30
2018-10-07T11:10:42.113Z,43.32
2018-10-07T11:14:02.092Z,42.99
2018-10-07T11:17:41.521Z,41.34
2018-10-07T11:23:08.822Z,40.70
2018-10-07T11:27:27.294Z,39.34
2018-10-07T11:31:42.651Z,36.87
2018-10-07T11:35:14.667Z,37.80
2018-10-07T11:38:44.911Z,37.59
2018-10-07T11:42:05.861Z,37.22
2018-10-07T11:46:24.418Z,33.92
2018-10-07T11:49:45.357Z,32.74
2018-10-07T11:54:09.996Z,31.38
2018-10-07T11:57:15.379Z,29.10
2018-10-07T12:00:20.822Z,30.33
2018-10-07T12:03:26.327Z,27.48
2018-10-07T12:06:32.483Z,29.58
2018-10-07T12:09:37.889Z,30.25
2018-10-07T12:12:43.270Z,29.59
2018-10-07T12:15:48.679Z,27.92
2018-10-07T12:18:54.062Z,27.64
2018-10-07T12:21:59.462Z,26.86
2018-10-07T12:25:05.169Z,26.46
2018-10-07T12:28:10.866Z,24.46
2018-10-07T12:31:16.369Z,24.27
2018-10-07T12:34:21.854Z,25.17
2018-10-07T12:37:28.290Z,26.59
2018-10-07T12:40:33.874Z,24.46
2018-10-07T12:43:39.334Z,24.98
2018-10-07T12:46:44.870Z,24.24
2018-10-07T12:49:50.279Z,22.22
2018-10-07T12:52:56.610Z,22.13
2018-10-07T12:56:02.723Z,22.17
2018-10-07T12:59:08.701Z,21.54
2018-10-07T13:02:14.617Z,20.65
2018-10-07T13:05:20.486Z,20.12
2018-10-07T13:08:25.860Z,21.52
2018-10-07T13:11:31.274Z,21.67
2018-10-07T13:14:36.762Z,22.24
2018-10-07T13:17:42.197Z,23.05
2018-10-07T13:20:47.626Z,27.93
2018-10-07T13:23:53.106Z,27.93
2018-10-07T13:26:58.517Z,27.55
2018-10-07T13:30:04.370Z,27.00
2018-10-07T13:33:09.883Z,28.42
2018-10-07T13:36:15.310Z,30.06
2018-10-07T13:39:20.730Z,28.33
2018-10-07T13:42:26.305Z,30.70
2018-10-07T13:45:31.798Z,32.73
2018-10-07T13:48:37.243Z,34.21
2018-10-07T13:51:42.686Z,35.65
2018-10-07T13:54:48.210Z,35.57
2018-10-07T13:57:53.613Z,36.88
2018-10-07T14:00:59.066Z,37.59
2018-10-07T14:04:04.827Z,38.69
2018-10-07T14:07:10.248Z,39.50
2018-10-07T14:10:15.645Z,39.95
2018-10-07T14:13:21.275Z,41.33
2018-10-07T14:16:30.438Z,41.72
2018-10-07T14:19:35.876Z,43.02
2018-10-07T14:22:41.325Z,41.97
2018-10-07T14:25:47.174Z,42.29
2018-10-07T14:28:52.647Z,43.00
2018-10-07T14:32:00.214Z,41.60
2018-10-07T14:35:06.830Z,42.19
2018-10-07T14:38:14.394Z,42.00
2018-10-07T14:41:22.122Z,42.00
2018-10-07T14:44:27.566Z,43.39
2018-10-07T14:47:32.938Z,44.62
2018-10-07T14:50:38.302Z,45.91
2018-10-07T14:53:43.799Z,47.23
2018-10-07T14:56:49.208Z,46.84
2018-10-07T14:59:54.594Z,48.51
2018-10-07T15:03:00.465Z,47.07
2018-10-07T15:06:09.318Z,47.94
2018-10-07T15:09:25.563Z,46.36
2018-10-07T15:12:35.207Z,46.29
2018-10-07T15:15:42.347Z,47.75
2018-10-07T15:18:50.947Z,47.29
2018-10-07T15:22:00.368Z,46.27
2018-10-07T15:25:18.693Z,47.03
2018-10-07T15:28:26.443Z,47.09
2018-10-07T15:31:38.827Z,46.83
2018-10-07T15:34:44.810Z,47.10
2018-10-07T15:37:52.338Z,48.72
2018-10-07T15:40:57.718Z,50.45
2018-10-07T15:44:03.245Z,50.27
2018-10-07T15:47:08.892Z,50.75
2018-10-07T15:50:14.370Z,51.80
2018-10-07T15:53:19.874Z,51.81
2018-10-07T15:56:25.246Z,52.28
2018-10-07T15:59:30.658Z,51.94
2018-10-07T16:02:36.099Z,52.96
2018-10-07T16:05:41.514Z,53.30
2018-10-07T16:08:46.933Z,53.67
2018-10-07T16:11:52.542Z,53.18
2018-10-07T16:14:57.999Z,52.80
2018-10-07T16:18:03.654Z,52.77
2018-10-07T16:21:11.136Z,53.25
2018-10-07T16:24:19.521Z,53.56
2018-10-07T16:27:28.106Z,53.40
2018-10-07T16:30:36.810Z,54.77
2018-10-07T16:33:42.634Z,56.58
2018-10-07T16:36:48.191Z,56.28
2018-10-07T16:39:53.788Z,55.92
2018-10-07T16:42:59.240Z,56.74
2018-10-07T16:46:04.859Z,57.25
2018-10-07T16:49:10.250Z,56.86
2018-10-07T16:52:15.876Z,56.93
2018-10-07T16:55:21.322Z,57.17
2018-10-07T16:58:26.701Z,58.20
2018-10-07T17:01:32.065Z,58.29
2018-10-07T17:04:37.566Z,58.33
2018-10-07T17:07:43.115Z,59.00
2018-10-07T17:10:48.465Z,59.37
2018-10-07T17:13:54.012Z,59.61
2018-10-07T17:16:59.378Z,59.96
2018-10-07T17:20:04.787Z,60.09
2018-10-07T17:23:10.299Z,60.91
2018-10-07T17:26:15.808Z,61.40
2018-10-07T17:29:21.311Z,61.15
2018-10-07T17:32:26.662Z,60.61
2018-10-07T17:35:34.206Z,60.87
2018-10-07T17:38:39.647Z,61.35
2018-10-07T17:41:45.014Z,62.18
2018-10-07T17:44:50.454Z,62.57
2018-10-07T17:47:55.859Z,63.13
2018-10-07T17:51:01.226Z,62.78
2018-10-07T17:54:06.925Z,63.83
2018-10-07T17:57:12.302Z,63.61
2018-10-07T18:00:17.792Z,63.63
2018-10-07T18:03:23.322Z,63.19
2018-10-07T18:06:29.653Z,63.79
2018-10-07T18:09:35.062Z,64.71
2018-10-07T18:12:40.502Z,64.97
2018-10-07T18:15:49.353Z,64.67
2018-10-07T18:19:06.760Z,65.92
2018-10-07T18:22:12.123Z,65.90
2018-10-07T18:25:17.903Z,65.88
2018-10-07T18:28:23.278Z,66.50
2018-10-07T18:31:28.634Z,66.39
2018-10-07T18:34:34.411Z,66.98
2018-10-07T18:37:39.947Z,66.90
2018-10-07T18:40:45.329Z,67.06
2018-10-07T18:43:50.791Z,67.09
2018-10-07T18:46:56.461Z,66.94
2018-10-07T18:50:01.933Z,68.32
2018-10-07T18:53:07.767Z,68.91
2018-10-07T18:56:13.175Z,68.85
2018-10-07T18:59:18.569Z,68.87
2018-10-07T19:02:24.524Z,68.95
2018-10-07T19:05:30.153Z,69.01
2018-10-07T19:08:35.558Z,69.30
2018-10-07T19:11:41.123Z,69.33
2018-10-07T19:14:46.668Z,68.99
2018-10-07T19:17:52.207Z,68.81
2018-10-07T19:20:57.626Z,69.62
2018-10-07T19:24:03.293Z,70.06
2018-10-07T19:27:08.799Z,70.14
2018-10-07T19:30:14.210Z,70.46
2018-10-07T19:33:19.690Z,70.25
2018-10-07T19:36:25.114Z,70.54
2018-10-07T19:39:30.500Z,70.56
2018-10-07T19:42:38.159Z,71.32
2018-10-07T19:45:43.558Z,70.92
2018-10-07T19:48:48.926Z,71.04
2018-10-07T19:51:54.330Z,72.07
2018-10-07T19:54:59.810Z,72.49
2018-10-07T19:58:05.212Z,72.54
2018-10-07T20:01:10.610Z,72.32
2018-10-07T20:04:16.243Z,72.75
2018-10-07T20:07:21.655Z,73.14
2018-10-07T20:10:27.038Z,73.13
2018-10-07T20:13:32.557Z,73.50
2018-10-07T20:16:38.116Z,73.01
2018-10-07T20:19:43.503Z,73.74
2018-10-07T20:22:48.918Z,73.39
2018-10-07T20:25:54.318Z,73.50
2018-10-07T20:28:59.782Z,74.34
2018-10-07T20:32:05.206Z,74.26
2018-10-07T20:35:10.726Z,74.06
2018-10-07T20:38:16.086Z,74.37
2018-10-07T20:41:21.465Z,75.17
2018-10-07T20:44:26.872Z,75.20
2018-10-07T20:47:32.278Z,75.13
2018-10-07T20:50:37.658Z,74.90
2018-10-07T20:53:43.074Z,75.17
2018-10-07T20:56:48.458Z,75.08
2018-10-07T20:59:53.837Z,75.29
2018-10-07T21:02:59.519Z,75.13
2018-10-07T21:06:05.097Z,75.34
2018-10-07T21:09:11.997Z,75.30
2018-10-07T21:12:17.365Z,75.57
2018-10-07T21:15:22.798Z,76.01
2018-10-07T21:18:28.176Z,76.12
2018-10-07T21:21:33.590Z,76.04
2018-10-07T21:24:39.031Z,76.11
2018-10-07T21:27:44.467Z,76.06
2018-10-07T21:30:49.856Z,75.82
2018-10-07T21:33:55.380Z,75.97
2018-10-07T21:37:00.795Z,76.21
2018-10-07T21:40:06.275Z,76.44
2018-10-07T21:43:11.786Z,76.42
2018-10-07T21:46:17.183Z,76.67
2018-10-07T21:49:22.594Z,76.08
2018-10-07T21:52:27.999Z,76.73
2018-10-07T21:55:33.626Z,76.01
2018-10-07T21:58:39.004Z,75.90
2018-10-07T22:01:44.410Z,76.14
2018-10-07T22:04:49.862Z,76.22
2018-10-07T22:07:55.267Z,76.53
2018-10-07T22:11:01.029Z,76.28
2018-10-07T22:14:06.525Z,77.09
2018-10-07T22:17:11.934Z,76.79
2018-10-07T22:20:17.302Z,77.10
2018-10-07T22:23:22.774Z,77.14
2018-10-07T22:26:28.194Z,76.97
2018-10-07T22:29:33.794Z,76.87
2018-10-07T22:32:39.191Z,76.66
2018-10-07T22:35:44.610Z,76.92
2018-10-07T22:38:50.082Z,76.65
2018-10-07T22:41:55.474Z,76.35
2018-10-07T22:45:00.867Z,76.76
2018-10-07T22:48:06.445Z,76.14
2018-10-07T22:51:11.822Z,76.32
2018-10-07T22:54:17.258Z,76.07
2018-10-07T22:57:22.979Z,76.65
2018-10-07T23:00:28.334Z,77.49
2018-10-07T23:03:34.002Z,77.53
2018-10-07T23:06:39.376Z,77.47
2018-10-07T23:09:44.728Z,78.01
2018-10-07T23:12:50.216Z,78.68
2018-10-07T23:15:55.575Z,77.53
2018-10-07T23:19:00.954Z,78.51
2018-10-07T23:22:07.118Z,78.64
2018-10-07T23:25:12.522Z,79.23
2018-10-07T23:28:17.923Z,78.49
2018-10-07T23:31:23.307Z,79.22
2018-10-07T23:34:28.784Z,78.94
2018-10-07T23:37:34.223Z,79.62
2018-10-07T23:40:39.774Z,79.23
2018-10-07T23:43:45.358Z,79.12
2018-10-07T23:46:50.710Z,79.16
2018-10-07T23:49:56.081Z,78.55
2018-10-07T23:53:01.719Z,79.13
2018-10-07T23:56:07.779Z,79.42
2018-10-07T23:59:13.158Z,79.37
